Archival Weather

Sydney Intl

Sydney, Australia (YSSY)

Report from: Friday, September 22, 2023 9:11 AM AEST
Current time: Sunday, February 25, 2024 3:29 AM AEDT

Current weather – Weather history – Daily summaries
Weather forecast

Present weatherVCSH
Temperature13.0°C (55.4°F)
Dew point11.0°C (51.8°F)
Winds 15 kts (7.7 m/s, 17.3 mph) Vrb
Winds variableWinds variable from South (190°) to West (270°)
Visibility6.2 mi. (10 km)
Clouds Scattered clouds 2,700 ft. (823 m)
Ceiling: Broken clouds 4,000 ft. (1,219 m)
Altimeter30.39 in.Hg (1029 mB)
Relative humidity88 %
Density altitude-584 ft. (-178 m)
Remarks Special weather observation
Flight conditions Visual Meteorological Conditions
Raw dataSPAU31 KWBC 212318 SPECI YSSY 212311Z 20015KT 190V270 9999 VCSH SCT027 BKN040 13/11 Q1029
An error has occurred. This application may no longer respond until reloaded. Reload 🗙